Albion, Pennsylvania
Current Conditions -  °F | °C
As of 9:51 PM on Monday 20 Oct 2014 (Local Time) from KERI Reporting Station
Overcast Overcast  
Wind Chill: 52°   Ceiling: 2400
Heat Index: 52°   Visibility: 10mi
Dew Point: 47°   Wind: 14mph
Humidity: 83%   Direction: 190°S
Pressure: 29.83"   Gusts: NA
Location:  41.89°N, 80.36°W
Report Text: KERI 210151Z 19012KT 10SM OVC024 11/08 A2983 RMK AO2 RAE48 SLP102 P0000 T01110083 $
Loading
Personal Weather Stations






























Interactive Weather Map New forecast layout! Learn more

10-Day Weather Forecast

Advertisements
Track Severe Weather on mobile